This is the latest recevied weather packets stored in our database for station/object BMCB-18. If no packets are shown the sender has not sent any weather packets the latest 10 day(s).
| Time | Temp. | Humidity | Pressure | Rain* | Wind** | Luminosity | Snow |
|---|---|---|---|---|---|---|---|
| 1777560644 | 20° C | 23% | 1024.6 hPa | 0 mm | - | 594 W/m² | - |
| 1777558247 | 20° C | 23% | 1025 hPa | 0 mm | - | 684 W/m² | - |
| 1777555244 | 19.44° C | 26% | 1025.3 hPa | 0 mm | - | 772 W/m² | - |
| 1777551047 | 18.33° C | 28% | 1026 hPa | 0 mm | - | 840 W/m² | - |
| 1777543243 | 16.11° C | 29% | 1026.9 hPa | 0 mm | - | 772 W/m² | - |
| 1777528848 | 8.33° C | 53% | 1027.9 hPa | 0 mm | - | 166 W/m² | - |
| 1777528244 | 7.22° C | 56% | 1027.9 hPa | 0 mm | - | 134 W/m² | - |
| 1777522243 | 3.33° C | 72% | 1027.3 hPa | 0 mm | - | 0 W/m² | - |
| 1777521644 | 3.33° C | 73% | 1027.4 hPa | 0 mm | - | 0 W/m² | - |
| 1777510245 | 4.44° C | 73% | 1027.4 hPa | 0 mm | - | 0 W/m² | - |
| 1777508442 | 7.22° C | 60% | 1027.3 hPa | 0 mm | - | 0 W/m² | - |
| 1777505446 | 10° C | 47% | 1027 hPa | 0 mm | - | 0 W/m² | - |
| 1777500046 | 11.11° C | 45% | 1026.7 hPa | 0 mm | - | 0 W/m² | - |
| 1777494646 | 13.33° C | 38% | 1025.9 hPa | 0 mm | - | 0 W/m² | - |
| 1777490446 | 15° C | 31% | 1025 hPa | 0 mm | - | 0 W/m² | - |
| 1777485649 | 17.22° C | 29% | 1024 hPa | 0 mm | - | 22 W/m² | - |
| 1777485049 | 17.22° C | 29% | 1024 hPa | 0 mm | - | 24 W/m² | - |
| 1777477245 | 18.33° C | 28% | 1023.8 hPa | 0 mm | - | 366 W/m² | - |
| 1777446045 | 9.44° C | 57% | 1025 hPa | 0 mm | - | 330 W/m² | - |
| 1777444245 | 8.33° C | 59% | 1024.9 hPa | 0 mm | - | 240 W/m² | - |
| 1777443045 | 7.78° C | 61% | 1024.9 hPa | 0 mm | - | 184 W/m² | - |
| 1777438245 | 6.67° C | 62% | 1024.5 hPa | 0 mm | - | 20 W/m² | - |
| 1777437645 | 6.67° C | 62% | 1024.4 hPa | 0 mm | - | 12 W/m² | - |
| 1777434047 | 7.78° C | 61% | 1024.3 hPa | 0 mm | - | 0 W/m² | - |
| 1777433445 | 7.78° C | 62% | 1024.2 hPa | 0 mm | - | 0 W/m² | - |
* Rain latest hour (hover to see other rain measurements)
** Current wind speed in m/s (hover to see current wind gust speed)